Terminal Aerodrome Forecast
Issued by NWS Cleveland, OH

Home | Current Version | Previous Version | Text Only | Print | Product List | Glossary Off
Versions: 1 2 3 4 5 6 7 8 9 10 11 12 13 14 15

000
FTUS41 KCLE 171700
TAFERI
TAF
KERI 171724Z 1718/1818 17012G22KT P6SM SCT200
     FM172200 16010KT P6SM OVC200
     FM181600 23006KT P6SM BKN040=

USA.gov is the U.S. government's official web portal to all federal, state and local government web resources and services.